Time;durP1;ratioP1;P1;durP2;ratioP2;P2;SDS_P1;SDS_P2;PMS_P1;PMS_P2;Temp;Humidity;BMP_temperature;BMP_pressure;BME280_temperature;BME280_humidity;BME280_pressure;Samples;Min_cycle;Max_cycle;Signal;HPM_P1;HPM_P2
2023/01/22 00:02:18;;;;;;;24.40;11.27;;;;;;;-3.67;100.00;95880.69;5025133;28;20049;-70
2023/01/22 00:04:44;;;;;;;28.38;11.52;;;;;;;-3.63;100.00;95882.94;5036810;28;20045;-69
2023/01/22 00:07:10;;;;;;;26.50;11.27;;;;;;;-3.70;100.00;95873.31;5015153;28;20068;-70
2023/01/22 00:09:35;;;;;;;30.75;10.73;;;;;;;-3.72;100.00;95880.44;5038383;28;20045;-70
2023/01/22 00:12:01;;;;;;;28.25;11.35;;;;;;;-3.76;100.00;95873.22;5049945;28;20633;-69
2023/01/22 00:14:26;;;;;;;29.67;11.75;;;;;;;-3.76;100.00;95874.00;5027614;28;20042;-70
2023/01/22 00:16:52;;;;;;;27.73;11.43;;;;;;;-3.76;100.00;95874.00;5035576;28;20466;-70
2023/01/22 00:19:17;;;;;;;33.92;12.23;;;;;;;-3.72;100.00;95877.84;5043216;28;20041;-70
2023/01/22 00:21:43;;;;;;;33.80;11.70;;;;;;;-3.79;100.00;95879.50;5030897;28;20075;-70
2023/01/22 00:24:09;;;;;;;32.15;11.98;;;;;;;-3.73;100.00;95872.88;5030757;28;20041;-70
2023/01/22 00:26:35;;;;;;;28.20;11.52;;;;;;;-3.69;100.00;95874.94;5031349;28;20049;-70
2023/01/22 00:29:00;;;;;;;32.38;11.90;;;;;;;-3.71;100.00;95876.88;5032045;28;20041;-70
2023/01/22 00:31:26;;;;;;;29.02;10.48;;;;;;;-3.69;100.00;95874.94;5017992;28;20418;-69
2023/01/22 00:33:51;;;;;;;36.15;11.70;;;;;;;-3.67;100.00;95878.13;5026729;28;20042;-70
2023/01/22 00:36:20;;;;;;;31.13;11.80;;;;;;;-3.71;100.00;95876.88;5028560;28;20110;-69
2023/01/22 00:38:46;;;;;;;36.28;12.55;;;;;;;-3.64;100.00;95877.00;5020749;28;20088;-70
2023/01/22 00:41:12;;;;;;;29.98;11.80;;;;;;;-3.67;100.00;95872.97;5025703;28;21571;-70
2023/01/22 00:43:38;;;;;;;30.42;12.07;;;;;;;-3.69;100.00;95869.78;5014348;28;20044;-70
2023/01/22 00:46:05;;;;;;;36.15;12.57;;;;;;;-3.73;100.00;95873.66;5034664;28;20123;-70
2023/01/22 00:48:31;;;;;;;28.45;11.55;;;;;;;-3.68;100.00;95871.41;5043224;28;20518;-70
2023/01/22 00:50:57;;;;;;;32.42;11.13;;;;;;;-3.61;100.00;95870.72;5037874;28;20037;-70
2023/01/22 00:53:22;;;;;;;29.15;10.68;;;;;;;-3.64;100.00;95873.63;5031495;28;20178;-70
2023/01/22 00:55:56;;;;;;;33.13;11.52;;;;;;;-3.75;100.00;95870.47;5039232;28;20084;-69
2023/01/22 00:58:21;;;;;;;27.25;11.32;;;;;;;-3.69;100.00;95869.78;5046299;28;20495;-70
2023/01/22 01:00:48;;;;;;;29.95;11.80;;;;;;;-3.69;100.00;95869.78;5035652;28;20049;-69
2023/01/22 01:03:25;;;;;;;27.92;12.00;;;;;;;-3.73;100.00;95872.88;5012278;28;20033;-70
2023/01/22 01:05:53;;;;;;;29.50;9.98;;;;;;;-3.63;100.00;95872.63;5000545;28;20052;-70
2023/01/22 01:08:18;;;;;;;29.83;11.43;;;;;;;-3.63;100.00;95872.63;5038283;28;20053;-70
2023/01/22 01:10:44;;;;;;;30.55;11.20;;;;;;;-3.68;100.00;95876.53;5021776;28;20041;-70
2023/01/22 01:13:10;;;;;;;29.67;10.68;;;;;;;-3.72;100.00;95875.28;5034984;28;20107;-70
2023/01/22 01:15:36;;;;;;;30.55;10.82;;;;;;;-3.69;100.00;95874.94;5034524;28;20034;-70
2023/01/22 01:18:02;;;;;;;30.40;11.52;;;;;;;-3.51;100.00;95876.41;5029392;28;20034;-70
2023/01/22 01:20:27;;;;;;;30.40;11.13;;;;;;;-3.63;100.00;95877.78;5038570;28;20065;-70
2023/01/22 01:22:53;;;;;;;33.88;11.88;;;;;;;-3.71;100.00;95870.94;5029908;28;20044;-70
2023/01/22 01:25:18;;;;;;;27.38;11.07;;;;;;;-3.71;100.00;95878.66;5039190;28;20059;-70
2023/01/22 01:27:44;;;;;;;25.35;10.63;;;;;;;-3.67;100.00;95875.56;5037442;28;20494;-70
2023/01/22 01:30:10;;;;;;;28.13;10.95;;;;;;;-3.59;100.00;95873.91;5041694;28;20036;-70
2023/01/22 01:32:35;;;;;;;30.73;10.60;;;;;;;-3.63;100.00;95877.78;5042933;28;20034;-70
2023/01/22 01:35:01;;;;;;;25.63;10.65;;;;;;;-3.68;100.00;95881.69;5045863;28;20552;-70
2023/01/22 01:37:26;;;;;;;30.08;11.45;;;;;;;-3.69;100.00;95869.78;5035707;28;20997;-70
2023/01/22 01:39:52;;;;;;;32.78;11.45;;;;;;;-3.65;100.00;95880.53;5051664;28;20518;-70
2023/01/22 01:42:27;;;;;;;31.00;11.55;;;;;;;-3.64;100.00;95881.34;5029999;28;20422;-70
2023/01/22 01:45:18;;;;;;;30.90;11.57;;;;;;;-3.67;100.00;95878.13;5023253;28;20038;-70
2023/01/22 01:47:46;;;;;;;29.05;11.27;;;;;;;-3.69;100.00;95879.28;5020008;28;20110;-70
2023/01/22 01:50:11;;;;;;;36.67;13.25;;;;;;;-3.72;100.00;95879.59;5048884;28;20041;-70
2023/01/22 01:52:37;;;;;;;29.38;11.60;;;;;;;-3.63;100.00;95877.78;5033767;28;20095;-70
2023/01/22 01:55:04;;;;;;;27.40;12.55;;;;;;;-3.64;100.00;95871.06;5032269;28;20115;-70
2023/01/22 01:57:33;;;;;;;31.83;11.85;;;;;;;-3.67;100.00;95877.34;5016321;28;20063;-70
2023/01/22 02:00:00;;;;;;;29.58;10.63;;;;;;;-3.66;100.00;95874.59;5029536;28;20042;-71
2023/01/22 02:02:25;;;;;;;36.13;12.82;;;;;;;-3.74;100.00;95873.84;5026821;28;20046;-70
2023/01/22 02:04:52;;;;;;;33.60;11.95;;;;;;;-3.75;100.00;95874.81;5029889;28;20046;-70
2023/01/22 02:07:19;;;;;;;30.63;11.15;;;;;;;-3.72;100.00;95872.72;5036549;28;20037;-70
2023/01/22 02:09:45;;;;;;;30.60;12.13;;;;;;;-3.72;100.00;95870.13;5029472;28;20415;-70
2023/01/22 02:12:10;;;;;;;29.73;12.25;;;;;;;-3.69;100.00;95869.78;5035498;28;20037;-71
2023/01/22 02:14:40;;;;;;;32.33;12.90;;;;;;;-3.70;100.00;95873.31;5034944;28;20554;-70
2023/01/22 02:17:12;;;;;;;32.90;11.38;;;;;;;-3.72;100.00;95870.13;5036356;28;20044;-70
2023/01/22 02:19:39;;;;;;;30.13;12.43;;;;;;;-3.75;100.00;95875.63;5033060;28;20037;-70
2023/01/22 02:22:11;;;;;;;34.65;11.70;;;;;;;-3.79;100.00;95874.38;5026698;28;20056;-70
2023/01/22 02:24:36;;;;;;;31.10;11.93;;;;;;;-3.77;100.00;95872.41;5012841;28;20045;-70
2023/01/22 02:27:02;;;;;;;39.22;12.23;;;;;;;-3.83;100.00;95867.94;5035694;28;20034;-70
2023/01/22 02:29:28;;;;;;;36.30;13.05;;;;;;;-3.75;100.00;95870.47;5034373;28;20041;-70
2023/01/22 02:31:53;;;;;;;36.17;11.95;;;;;;;-3.70;100.00;95873.31;5032549;28;20049;-70
2023/01/22 02:34:23;;;;;;;33.67;12.02;;;;;;;-3.75;100.00;95875.63;5032511;28;20494;-70
2023/01/22 02:36:49;;;;;;;29.52;12.25;;;;;;;-3.77;100.00;95877.56;5031477;28;20050;-70
2023/01/22 02:39:15;;;;;;;33.28;12.00;;;;;;;-3.82;100.00;95874.72;5027752;28;20049;-70
2023/01/22 02:41:40;;;;;;;34.50;12.38;;;;;;;-3.75;100.00;95875.63;5036172;28;20496;-71
2023/01/22 02:44:06;;;;;;;34.50;11.57;;;;;;;-3.78;100.00;95881.09;5022468;28;20123;-70
2023/01/22 02:46:32;;;;;;;37.10;13.32;;;;;;;-3.77;100.00;95874.97;5029999;28;20038;-70
2023/01/22 02:48:57;;;;;;;30.92;11.65;;;;;;;-3.80;100.00;95877.91;5039399;28;20037;-71
2023/01/22 02:51:25;;;;;;;35.45;12.25;;;;;;;-3.86;100.00;95873.44;5027305;28;20056;-70
2023/01/22 02:53:51;;;;;;;31.17;11.60;;;;;;;-3.86;100.00;95876.81;5029311;28;20093;-71
2023/01/22 02:56:17;;;;;;;33.30;12.05;;;;;;;-3.83;100.00;95875.66;5038228;28;20075;-70
2023/01/22 02:58:43;;;;;;;32.78;12.88;;;;;;;-3.83;100.00;95870.53;5040037;28;20045;-70
2023/01/22 03:01:17;;;;;;;42.17;12.80;;;;;;;-3.81;100.00;95876.28;5035225;28;20506;-70
2023/01/22 03:03:51;;;;;;;30.45;12.45;;;;;;;-3.77;100.00;95876.75;5031648;28;20048;-70
2023/01/22 03:06:20;;;;;;;35.58;13.05;;;;;;;-3.77;100.00;95871.63;5027865;28;20406;-70
2023/01/22 03:08:47;;;;;;;37.25;13.07;;;;;;;-3.78;100.00;95875.16;5032294;28;20033;-70
2023/01/22 03:11:13;;;;;;;36.42;13.32;;;;;;;-3.72;100.00;95870.13;5034752;28;20502;-70
2023/01/22 03:21:51;;;;;;;35.92;12.55;;;;;;;-3.72;100.00;95875.28;5030348;28;20518;-70
2023/01/22 03:24:17;;;;;;;36.95;12.88;;;;;;;-3.71;100.00;95866.56;5041478;28;20037;-70
2023/01/22 03:26:42;;;;;;;35.17;13.85;;;;;;;-3.72;100.00;95877.84;5030414;28;20045;-70
2023/01/22 03:29:08;;;;;;;32.42;13.32;;;;;;;-3.76;100.00;95873.22;5028719;28;20067;-70
2023/01/22 03:31:33;;;;;;;38.28;12.93;;;;;;;-3.78;100.00;95875.94;5033251;28;20507;-70
2023/01/22 03:33:59;;;;;;;34.50;13.15;;;;;;;-3.73;100.00;95883.97;5031973;28;20068;-71
2023/01/22 03:36:24;;;;;;;37.08;11.52;;;;;;;-3.74;100.00;95882.34;5013540;28;20077;-70
2023/01/22 03:38:50;;;;;;;34.15;12.77;;;;;;;-3.74;100.00;95881.56;5034936;28;20116;-70
2023/01/22 03:41:16;;;;;;;36.80;12.70;;;;;;;-3.73;100.00;95881.38;5037260;28;20053;-70
2023/01/22 03:43:43;;;;;;;37.67;14.07;;;;;;;-3.69;100.00;95885.22;5035278;28;20049;-70
2023/01/22 03:46:11;;;;;;;36.33;13.68;;;;;;;-3.72;100.00;95880.44;5039245;28;20384;-70
2023/01/22 03:48:38;;;;;;;36.17;13.38;;;;;;;-3.71;100.00;95886.38;5032588;28;20491;-71
2023/01/22 03:51:12;;;;;;;39.58;13.93;;;;;;;-3.75;100.00;95878.19;5036141;28;20033;-70
2023/01/22 03:53:39;;;;;;;41.20;14.32;;;;;;;-3.72;100.00;95895.03;5040943;28;20045;-70
2023/01/22 03:56:06;;;;;;;34.17;13.07;;;;;;;-3.68;100.00;95891.97;5041255;28;20041;-70
2023/01/22 03:58:33;;;;;;;32.88;13.18;;;;;;;-3.67;100.00;95890.97;5038878;28;20041;-71
2023/01/22 04:01:04;;;;;;;34.55;12.93;;;;;;;-3.70;100.00;95893.91;5034331;28;20534;-70
2023/01/22 04:03:30;;;;;;;37.20;13.85;;;;;;;-3.61;100.00;95897.22;5039751;28;20049;-70
2023/01/22 04:05:59;;;;;;;39.67;13.23;;;;;;;-3.69;100.00;95900.66;5044738;28;20064;-70
2023/01/22 04:08:27;;;;;;;34.90;13.60;;;;;;;-3.73;100.00;95899.38;5028219;28;20436;-71
2023/01/22 04:10:53;;;;;;;37.47;13.18;;;;;;;-3.68;100.00;95896.31;5023080;28;20037;-70
2023/01/22 04:13:19;;;;;;;37.80;13.18;;;;;;;-3.72;100.00;95895.84;5026035;28;20416;-70
2023/01/22 04:15:44;;;;;;;39.63;14.05;;;;;;;-3.71;100.00;95897.44;5047211;28;20069;-71
2023/01/22 04:18:11;;;;;;;41.00;14.50;;;;;;;-3.75;100.00;95906.50;5012137;28;20518;-71
2023/01/22 04:20:37;;;;;;;36.47;14.40;;;;;;;-3.70;100.00;95908.53;5036633;28;20041;-70
2023/01/22 04:23:03;;;;;;;37.10;14.60;;;;;;;-3.74;100.00;95908.06;5013525;28;20068;-70
2023/01/22 04:25:28;;;;;;;38.03;13.95;;;;;;;-3.72;100.00;95911.28;5035596;28;20045;-71
2023/01/22 04:27:54;;;;;;;38.92;13.82;;;;;;;-3.72;100.00;95908.72;5021608;28;20061;-71
2023/01/22 04:30:20;;;;;;;46.67;14.13;;;;;;;-3.67;100.00;95914.13;5031033;28;20092;-71
2023/01/22 04:32:45;;;;;;;38.10;14.15;;;;;;;-3.73;100.00;95914.81;5034583;28;20037;-71
2023/01/22 04:35:11;;;;;;;40.08;12.95;;;;;;;-3.69;100.00;95910.94;5035044;28;20037;-70
2023/01/22 04:37:36;;;;;;;44.10;13.75;;;;;;;-3.77;100.00;95912.78;5039828;28;20499;-71
2023/01/22 04:40:04;;;;;;;37.60;12.85;;;;;;;-3.75;100.00;95909.06;5033355;28;20549;-70
2023/01/22 04:42:31;;;;;;;37.40;13.32;;;;;;;-3.71;100.00;95923.16;5025418;28;20050;-70
2023/01/22 04:44:57;;;;;;;33.78;13.05;;;;;;;-3.71;100.00;95918.00;5034534;28;20128;-71
2023/01/22 04:47:23;;;;;;;35.97;13.88;;;;;;;-3.58;100.00;95921.81;5025787;28;20667;-70
2023/01/22 04:49:49;;;;;;;44.22;13.70;;;;;;;-3.57;100.00;95923.44;5023953;28;20112;-70
2023/01/22 04:52:15;;;;;;;48.30;14.18;;;;;;;-3.62;100.00;95931.66;5034118;28;20123;-71
2023/01/22 04:54:40;;;;;;;36.85;13.82;;;;;;;-3.62;100.00;95926.50;5038006;28;20038;-71
2023/01/22 04:57:06;;;;;;;46.63;14.18;;;;;;;-3.68;100.00;95930.56;5043828;28;20056;-71
2023/01/22 04:59:31;;;;;;;47.28;15.10;;;;;;;-3.70;100.00;95932.50;5040240;28;20033;-72
2023/01/22 05:01:57;;;;;;;42.63;14.48;;;;;;;-3.81;100.00;95926.94;5030399;28;20095;-71
2023/01/22 05:04:22;;;;;;;40.75;14.27;;;;;;;-3.74;100.00;95933.78;5031114;28;20096;-71
2023/01/22 05:06:49;;;;;;;42.08;15.68;;;;;;;-3.81;100.00;95927.72;5027141;28;20041;-71
2023/01/22 05:09:15;;;;;;;40.45;14.02;;;;;;;-3.90;100.00;95933.88;5032502;28;20052;-71
2023/01/22 05:11:40;;;;;;;46.58;15.48;;;;;;;-3.87;100.00;95939.47;5019280;28;20049;-71
2023/01/22 05:14:06;;;;;;;47.95;15.27;;;;;;;-3.86;100.00;95932.59;5008715;28;20037;-71
2023/01/22 05:16:32;;;;;;;48.83;15.18;;;;;;;-3.88;100.00;95937.06;5029571;28;20064;-71
2023/01/22 05:18:57;;;;;;;42.05;14.57;;;;;;;-3.91;100.00;95938.22;5029767;28;20064;-71
2023/01/22 05:21:23;;;;;;;43.70;13.98;;;;;;;-3.94;100.00;95942.91;5038542;28;20075;-71
2023/01/22 05:23:48;;;;;;;39.45;14.15;;;;;;;-3.93;100.00;95939.38;5024449;28;20045;-71
2023/01/22 05:26:14;;;;;;;45.47;15.25;;;;;;;-3.94;100.00;95942.91;5030754;28;20037;-71
2023/01/22 05:28:39;;;;;;;37.17;13.63;;;;;;;-3.92;100.00;95946.91;5028983;28;20404;-71
2023/01/22 05:31:05;;;;;;;47.67;14.52;;;;;;;-3.87;100.00;95948.97;5037154;28;20140;-71
2023/01/22 05:33:31;;;;;;;40.38;13.68;;;;;;;-3.94;100.00;95948.03;5021583;28;20483;-71
2023/01/22 05:35:59;;;;;;;41.92;14.63;;;;;;;-3.95;100.00;95951.56;5034034;28;20037;-71
2023/01/22 05:38:25;;;;;;;38.85;13.73;;;;;;;-4.00;100.00;95957.22;5040670;28;20047;-71
2023/01/22 05:40:51;;;;;;;37.17;14.13;;;;;;;-4.07;100.00;95953.72;5040402;28;20099;-71
2023/01/22 05:43:16;;;;;;;48.10;15.10;;;;;;;-4.04;100.00;95949.06;5018553;28;20050;-71
2023/01/22 05:45:42;;;;;;;33.85;12.80;;;;;;;-4.01;100.00;95953.88;5037414;28;20168;-71
2023/01/22 05:48:07;;;;;;;36.92;14.15;;;;;;;-4.09;100.00;95955.66;5024478;28;20068;-70
2023/01/22 05:50:33;;;;;;;40.65;14.20;;;;;;;-4.09;100.00;95961.59;5012871;28;20041;-71
2023/01/22 05:52:58;;;;;;;44.92;14.05;;;;;;;-4.09;100.00;95961.59;5034946;28;20107;-71
2023/01/22 05:55:24;;;;;;;38.60;13.75;;;;;;;-4.17;100.00;95969.31;5028352;28;20045;-71
2023/01/22 05:57:49;;;;;;;40.42;13.63;;;;;;;-4.10;100.00;95959.97;5037347;28;20052;-71
2023/01/22 06:00:16;;;;;;;31.63;12.77;;;;;;;-4.18;100.00;95967.72;5036334;28;20037;-71
2023/01/22 06:02:41;;;;;;;43.00;13.90;;;;;;;-4.26;100.00;95965.19;5041097;28;20422;-71
2023/01/22 06:05:07;;;;;;;36.13;13.10;;;;;;;-4.24;100.00;95973.53;5035250;28;20041;-71
2023/01/22 06:07:33;;;;;;;36.13;13.35;;;;;;;-4.20;100.00;95974.81;5043531;28;20130;-71
2023/01/22 06:09:58;;;;;;;37.63;13.55;;;;;;;-4.24;100.00;95973.53;5039692;28;20061;-71
2023/01/22 06:12:24;;;;;;;37.00;13.30;;;;;;;-4.27;100.00;95968.72;5040557;28;20499;-71
2023/01/22 06:14:49;;;;;;;42.10;14.43;;;;;;;-4.37;100.00;95974.84;5039263;28;20037;-71
2023/01/22 06:17:15;;;;;;;37.83;13.57;;;;;;;-4.52;100.00;95981.63;5027025;28;20030;-71
2023/01/22 06:19:41;;;;;;;41.03;12.88;;;;;;;-4.53;100.00;95980.00;5030604;28;20053;-72
2023/01/22 06:22:06;;;;;;;37.17;14.00;;;;;;;-4.55;100.00;95987.09;5028614;28;20046;-71
2023/01/22 06:24:32;;;;;;;38.53;13.48;;;;;;;-4.38;100.00;95988.66;5036680;28;20506;-72
2023/01/22 06:26:57;;;;;;;35.85;12.63;;;;;;;-4.30;100.00;95987.03;5030403;28;20514;-71
2023/01/22 06:29:23;;;;;;;40.83;13.48;;;;;;;-4.24;100.00;95978.66;5029846;28;20038;-71
2023/01/22 06:31:48;;;;;;;33.20;12.45;;;;;;;-4.20;100.00;95995.38;5030349;28;20045;-70
2023/01/22 06:34:15;;;;;;;36.55;11.77;;;;;;;-4.22;100.00;95992.16;5037163;28;20044;-72
2023/01/22 06:36:40;;;;;;;36.38;13.27;;;;;;;-4.19;100.00;95992.63;5030401;28;20049;-71
2023/01/22 06:39:06;;;;;;;41.20;13.68;;;;;;;-4.17;100.00;95995.03;5046655;28;20120;-71
2023/01/22 06:41:31;;;;;;;39.42;13.10;;;;;;;-4.16;100.00;95996.63;5035057;28;20092;-71
2023/01/22 06:43:57;;;;;;;44.65;13.27;;;;;;;-4.15;100.00;95992.28;5025546;28;20486;-71
2023/01/22 06:46:22;;;;;;;34.78;12.35;;;;;;;-4.13;100.00;96001.44;5031999;28;20037;-71
2023/01/22 06:48:48;;;;;;;39.95;13.07;;;;;;;-4.09;100.00;95995.00;5017075;28;20395;-71
2023/01/22 06:51:14;;;;;;;35.15;12.15;;;;;;;-4.10;100.00;95995.97;5027021;28;20593;-71
2023/01/22 06:53:41;;;;;;;40.97;13.88;;;;;;;-4.08;100.00;96004.34;5028489;28;20479;-71
2023/01/22 06:56:06;;;;;;;38.20;12.57;;;;;;;-4.07;100.00;96007.69;5027380;28;20071;-72
2023/01/22 06:58:32;;;;;;;36.03;12.98;;;;;;;-4.02;100.00;96008.81;5029824;28;20434;-71
2023/01/22 07:01:02;;;;;;;46.35;14.02;;;;;;;-4.06;100.00;96011.88;5028342;28;20052;-71
2023/01/22 07:03:28;;;;;;;42.55;13.02;;;;;;;-4.03;100.00;96019.25;5016209;28;20040;-71
2023/01/22 07:06:01;;;;;;;42.88;14.55;;;;;;;-4.07;100.00;96015.41;5043407;28;20045;-71
2023/01/22 07:08:31;;;;;;;41.10;13.93;;;;;;;-4.04;100.00;96021.03;5028507;28;20041;-71
2023/01/22 07:10:57;;;;;;;38.30;12.18;;;;;;;-4.04;100.00;96021.03;5026426;28;20094;-72
2023/01/22 07:13:23;;;;;;;35.20;12.18;;;;;;;-4.07;100.00;96025.69;5036060;28;20034;-72
2023/01/22 07:15:48;;;;;;;48.08;13.40;;;;;;;-3.96;100.00;96027.13;5018423;28;20048;-71
2023/01/22 07:18:15;;;;;;;38.58;13.90;;;;;;;-4.04;100.00;96028.75;5004879;28;20041;-71
2023/01/22 07:20:42;;;;;;;52.33;17.80;;;;;;;-4.07;100.00;96026.50;5029571;28;20044;-71
2023/01/22 07:23:08;;;;;;;55.85;20.98;;;;;;;-3.92;100.00;96028.38;5025103;28;20503;-71
2023/01/22 07:25:34;;;;;;;41.45;13.63;;;;;;;-4.04;100.00;96031.31;5038232;28;20092;-71
2023/01/22 07:28:04;;;;;;;41.35;13.73;;;;;;;-4.06;100.00;96028.09;5030196;28;20042;-71
2023/01/22 07:30:29;;;;;;;43.75;14.55;;;;;;;-4.03;100.00;96027.75;5023644;28;20042;-71
2023/01/22 07:33:00;;;;;;;44.30;13.15;;;;;;;-4.04;100.00;96031.31;5029394;28;20052;-70
2023/01/22 07:35:25;;;;;;;44.03;14.63;;;;;;;-3.99;100.00;96033.41;5035501;28;20048;-72
2023/01/22 07:37:52;;;;;;;43.95;14.10;;;;;;;-4.01;100.00;96027.59;5022050;28;20451;-72
2023/01/22 07:40:18;;;;;;;43.30;13.65;;;;;;;-3.98;100.00;96034.19;5025497;28;20488;-72
2023/01/22 07:42:44;;;;;;;36.45;12.68;;;;;;;-3.95;100.00;96026.13;5030983;28;20053;-72
2023/01/22 07:45:10;;;;;;;41.90;14.40;;;;;;;-3.91;100.00;96027.41;5036793;28;20045;-72
2023/01/22 07:47:35;;;;;;;45.85;18.15;;;;;;;-3.86;100.00;96027.72;5013809;28;20084;-72
2023/01/22 07:50:01;;;;;;;43.75;13.20;;;;;;;-3.79;100.00;96033.00;5039839;28;20037;-72
2023/01/22 07:52:26;;;;;;;49.08;15.05;;;;;;;-3.77;100.00;96024.16;5033928;28;20048;-72
2023/01/22 07:54:52;;;;;;;43.50;13.00;;;;;;;-3.72;100.00;96026.22;5047303;28;20045;-72
2023/01/22 07:57:17;;;;;;;32.58;11.90;;;;;;;-3.72;100.00;96026.22;5027227;28;20134;-72
2023/01/22 07:59:43;;;;;;;45.33;13.73;;;;;;;-3.75;100.00;96029.94;5025889;28;20048;-72
2023/01/22 08:02:14;;;;;;;35.58;13.20;;;;;;;-3.80;100.00;96039.91;5032994;28;20040;-72
2023/01/22 08:04:41;;;;;;;37.15;12.95;;;;;;;-3.81;100.00;96035.72;5049597;28;20041;-72
2023/01/22 08:07:16;;;;;;;35.83;13.85;;;;;;;-3.73;100.00;96033.16;5034054;28;20060;-74
2023/01/22 08:09:42;;;;;;;38.67;13.93;;;;;;;-3.57;100.00;96046.91;5039664;28;20045;-72
2023/01/22 08:12:08;;;;;;;42.13;13.60;;;;;;;-3.54;100.00;96046.59;5020735;28;20043;-74
2023/01/22 08:14:33;;;;;;;44.50;14.93;;;;;;;-3.49;100.00;96047.69;5037021;28;20094;-72
2023/01/22 08:16:59;;;;;;;51.22;15.27;;;;;;;-3.47;100.00;96047.50;5038570;28;20041;-70
2023/01/22 08:19:24;;;;;;;38.95;14.98;;;;;;;-3.37;100.00;96053.25;5009770;28;20037;-71
2023/01/22 08:21:50;;;;;;;46.60;15.27;;;;;;;-3.33;100.00;96059.66;5005991;28;20037;-71
2023/01/22 08:24:15;;;;;;;41.35;15.75;;;;;;;-3.29;100.00;96054.19;5044575;28;20461;-72
2023/01/22 08:26:44;;;;;;;45.10;16.13;;;;;;;-3.22;100.00;96060.25;5029965;28;20138;-75
2023/01/22 08:29:09;;;;;;;45.45;15.63;;;;;;;-3.16;100.00;96054.44;5013141;28;20045;-73
2023/01/22 08:31:35;;;;;;;51.70;17.35;;;;;;;-3.22;100.00;96060.25;5011462;28;20042;-76
2023/01/22 08:34:00;;;;;;;48.17;16.50;;;;;;;-3.08;100.00;96062.09;5026629;28;20057;-75
2023/01/22 08:36:26;;;;;;;44.03;15.13;;;;;;;-3.00;100.00;96062.06;5031119;28;20422;-74
2023/01/22 08:38:52;;;;;;;44.53;15.25;;;;;;;-3.00;100.00;96059.50;5020012;28;20415;-74
2023/01/22 08:41:17;;;;;;;48.80;15.38;;;;;;;-2.88;100.00;96061.69;5023379;28;20434;-73
2023/01/22 08:43:43;;;;;;;46.97;16.45;;;;;;;-2.95;100.00;96056.41;5031531;28;20037;-74
2023/01/22 08:46:08;;;;;;;47.85;17.65;;;;;;;-3.08;100.00;96061.31;5031316;28;20061;-77
2023/01/22 08:48:34;;;;;;;43.60;14.57;;;;;;;-2.87;100.00;96063.28;5026544;28;20048;-74
2023/01/22 08:51:00;;;;;;;47.47;16.83;;;;;;;-2.91;100.00;96064.59;5023672;28;20066;-73
2023/01/22 08:53:25;;;;;;;56.38;17.20;;;;;;;-2.88;100.00;96066.84;5012217;28;20037;-73
2023/01/22 08:55:51;;;;;;;40.78;15.68;;;;;;;-2.76;100.00;96072.38;5013787;28;20045;-73
2023/01/22 08:58:17;;;;;;;44.85;14.30;;;;;;;-2.62;100.00;96077.59;5029960;28;20099;-74
2023/01/22 09:00:43;;;;;;;37.10;14.85;;;;;;;-2.63;100.00;96081.16;5028751;28;20439;-72
2023/01/22 09:03:08;;;;;;;41.33;13.98;;;;;;;-2.35;100.00;96088.34;5013923;28;20041;-73
2023/01/22 09:05:38;;;;;;;42.75;15.30;;;;;;;-2.33;100.00;96086.41;5028575;28;20042;-72
2023/01/22 09:08:04;;;;;;;43.78;14.00;;;;;;;-2.29;100.00;96092.00;5014735;28;20064;-73
2023/01/22 09:10:30;;;;;;;42.22;15.00;;;;;;;-2.16;100.00;96091.41;5009819;28;20642;-73
2023/01/22 09:13:00;;;;;;;37.90;13.55;;;;;;;-2.04;100.00;96095.19;5027892;28;20044;-73
2023/01/22 09:15:26;;;;;;;44.10;15.57;;;;;;;-2.25;100.00;96092.47;5023499;28;20045;-73
2023/01/22 09:17:51;;;;;;;53.83;17.05;;;;;;;-2.50;100.00;96106.34;5028694;28;20038;-72
2023/01/22 09:20:18;;;;;;;43.50;14.15;;;;;;;-2.26;100.00;96112.28;5028008;28;20473;-73
2023/01/22 09:22:47;;;;;;;44.72;15.02;;;;;;;-2.34;100.00;96105.44;5020158;28;20056;-75
2023/01/22 09:25:14;;;;;;;51.35;16.20;;;;;;;-2.12;100.00;96123.63;5028510;28;20061;-73
2023/01/22 09:27:39;;;;;;;49.25;16.58;;;;;;;-2.13;100.00;96116.84;5018380;28;20623;-73
2023/01/22 09:30:05;;;;;;;48.88;15.88;;;;;;;-1.96;100.00;96118.31;5033165;28;20034;-73
2023/01/22 09:32:31;;;;;;;50.85;16.63;;;;;;;-2.35;100.00;96129.59;5032549;28;20041;-73
2023/01/22 09:34:57;;;;;;;50.42;16.58;;;;;;;-2.22;100.00;96128.22;5027539;28;20175;-72
2023/01/22 09:37:24;;;;;;;44.20;16.25;;;;;;;-2.37;100.00;96131.56;5030932;28;20385;-73
2023/01/22 09:39:49;;;;;;;43.33;15.75;;;;;;;-2.22;100.00;96133.38;5017497;28;20045;-73
2023/01/22 09:42:39;;;;;;;56.95;16.50;;;;;;;-2.45;100.00;96131.59;5007517;28;20052;-72
2023/01/22 09:45:13;;;;;;;43.70;16.67;;;;;;;-2.15;100.00;96129.91;5012292;28;20041;-73
2023/01/22 09:47:40;;;;;;;;;;;;;;;-2.17;100.00;96134.47;5028427;28;20139;-72
2023/01/22 09:50:36;;;;;;;41.58;14.27;;;;;;;-2.43;100.00;96132.22;5029591;28;19920;-74
2023/01/22 09:53:06;;;;;;;54.15;16.90;;;;;;;-2.32;100.00;96129.25;5015941;28;20079;-74
2023/01/22 09:55:39;;;;;;;48.97;17.50;;;;;;;-2.25;100.00;96142.25;5031863;28;20041;-75
2023/01/22 09:58:13;;;;;;;56.95;17.27;;;;;;;-2.18;100.00;96134.63;5014499;28;20495;-74
2023/01/22 10:00:43;;;;;;;51.88;17.35;;;;;;;-2.31;100.00;96140.38;5042781;28;20037;-76
2023/01/22 10:03:17;;;;;;;58.35;19.50;;;;;;;-2.24;100.00;96135.31;5028256;28;20806;-76
2023/01/22 10:05:48;;;;;;;53.97;18.85;;;;;;;-2.17;100.00;96141.38;5033887;28;20103;-74
2023/01/22 10:08:24;;;;;;;53.13;17.58;;;;;;;-2.14;100.00;96147.00;5030497;28;20113;-75
2023/01/22 10:10:51;;;;;;;56.72;18.08;;;;;;;-2.14;100.00;96135.88;5024911;28;20060;-74
2023/01/22 10:13:34;;;;;;;58.63;18.65;;;;;;;-2.09;100.00;96143.91;5033214;28;20088;-73
2023/01/22 10:16:00;;;;;;;49.33;16.95;;;;;;;-2.10;100.00;96137.13;5055125;28;20093;-73
2023/01/22 10:18:43;;;;;;;57.03;17.52;;;;;;;-1.94;100.00;96134.44;5049399;28;20093;-73
2023/01/22 10:21:18;;;;;;;51.38;16.27;;;;;;;-1.65;100.00;96142.38;5064149;28;20049;-72
2023/01/22 10:23:43;;;;;;;50.55;17.90;;;;;;;-1.83;100.00;96132.41;5050999;28;20324;-72
2023/01/22 10:26:17;;;;;;;51.97;17.08;;;;;;;-1.72;100.00;96144.88;5043330;28;20041;-71
2023/01/22 10:28:49;;;;;;;60.03;19.10;;;;;;;-1.80;100.00;96142.34;5057038;28;20038;-72
2023/01/22 10:31:27;;;;;;;63.67;19.00;;;;;;;-1.43;100.00;96135.53;5038928;28;20056;-72
2023/01/22 10:34:11;;;;;;;63.45;18.05;;;;;;;-1.66;100.00;96139.00;5013340;28;20112;-75
2023/01/22 10:36:37;;;;;;;54.05;17.23;;;;;;;-1.73;100.00;96137.31;5034802;28;20118;-73
2023/01/22 10:39:11;;;;;;;54.30;17.65;;;;;;;-1.70;100.00;96136.94;5027658;28;20503;-72
2023/01/22 10:41:37;;;;;;;48.13;15.85;;;;;;;-1.46;100.00;96135.91;5009564;28;20052;-74
2023/01/22 10:44:08;;;;;;;50.33;16.20;;;;;;;-1.42;100.00;96134.56;5023408;28;20470;-74
2023/01/22 10:46:34;;;;;;;51.65;16.58;;;;;;;-1.08;100.00;96130.63;5028591;28;20041;-72
2023/01/22 10:49:01;;;;;;;43.72;15.45;;;;;;;-0.78;100.00;96127.97;5031199;28;20107;-73
2023/01/22 10:51:31;;;;;;;51.08;15.60;;;;;;;-0.67;100.00;96132.69;5019127;28;20037;-71
2023/01/22 10:53:57;;;;;;;42.85;14.90;;;;;;;-1.26;100.00;96129.22;5007596;28;20045;-73
2023/01/22 10:56:28;;;;;;;45.88;15.73;;;;;;;-1.16;100.00;96134.09;5011782;28;20487;-73
2023/01/22 10:58:55;;;;;;;51.50;17.23;;;;;;;-1.24;100.00;96122.06;5023629;28;20040;-75
2023/01/22 11:01:34;;;;;;;45.78;15.13;;;;;;;-0.99;100.00;96129.53;5029105;28;20037;-74
2023/01/22 11:04:17;;;;;;;41.25;14.35;;;;;;;-1.04;100.00;96137.03;5030177;28;20116;-74
2023/01/22 11:06:50;;;;;;;48.13;16.80;;;;;;;-1.08;100.00;96133.19;5027026;28;20046;-73
2023/01/22 11:09:15;;;;;;;40.35;14.45;;;;;;;-0.82;100.00;96130.13;5035955;28;20313;-73
2023/01/22 11:11:46;;;;;;;42.72;14.77;;;;;;;-1.05;100.00;96135.41;5024594;28;20041;-74
2023/01/22 11:14:35;;;;;;;37.67;13.50;;;;;;;-1.05;100.00;96135.41;5024332;28;20120;-72
2023/01/22 11:17:10;;;;;;;38.55;13.13;;;;;;;-1.11;100.00;96125.81;5020172;28;20062;-72
2023/01/22 11:19:44;;;;;;;35.67;12.80;;;;;;;-1.06;100.00;96133.84;5043389;28;20104;-72